sensor_id;sensor_type;location;lat;lon;timestamp;P1;durP1;ratioP1;P2;durP2;ratioP2
4601;SDS011;2313;48.552;9.370;2023-01-20T00:00:22;9.33;;;5.80;;
4601;SDS011;2313;48.552;9.370;2023-01-20T00:02:48;9.50;;;6.90;;
4601;SDS011;2313;48.552;9.370;2023-01-20T00:05:14;8.10;;;5.40;;
4601;SDS011;2313;48.552;9.370;2023-01-20T00:07:39;10.93;;;5.53;;
4601;SDS011;2313;48.552;9.370;2023-01-20T00:10:05;6.27;;;4.53;;
4601;SDS011;2313;48.552;9.370;2023-01-20T00:12:31;7.78;;;5.57;;
4601;SDS011;2313;48.552;9.370;2023-01-20T00:14:57;8.70;;;5.30;;
4601;SDS011;2313;48.552;9.370;2023-01-20T00:17:22;10.40;;;5.50;;
4601;SDS011;2313;48.552;9.370;2023-01-20T00:19:48;10.17;;;5.33;;
4601;SDS011;2313;48.552;9.370;2023-01-20T00:22:14;6.17;;;4.40;;
4601;SDS011;2313;48.552;9.370;2023-01-20T00:24:39;6.60;;;4.90;;
4601;SDS011;2313;48.552;9.370;2023-01-20T00:27:05;9.57;;;5.80;;
4601;SDS011;2313;48.552;9.370;2023-01-20T00:29:31;6.60;;;4.90;;
4601;SDS011;2313;48.552;9.370;2023-01-20T00:31:57;6.70;;;5.00;;
4601;SDS011;2313;48.552;9.370;2023-01-20T00:34:22;9.07;;;4.80;;
4601;SDS011;2313;48.552;9.370;2023-01-20T00:36:48;8.07;;;5.10;;
4601;SDS011;2313;48.552;9.370;2023-01-20T00:39:14;10.40;;;4.70;;
4601;SDS011;2313;48.552;9.370;2023-01-20T00:41:39;6.13;;;4.60;;
4601;SDS011;2313;48.552;9.370;2023-01-20T00:44:05;7.63;;;5.03;;
4601;SDS011;2313;48.552;9.370;2023-01-20T00:46:30;5.13;;;4.53;;
4601;SDS011;2313;48.552;9.370;2023-01-20T00:48:56;5.73;;;4.50;;
4601;SDS011;2313;48.552;9.370;2023-01-20T00:51:22;4.70;;;4.07;;
4601;SDS011;2313;48.552;9.370;2023-01-20T00:53:47;4.83;;;4.40;;
4601;SDS011;2313;48.552;9.370;2023-01-20T00:56:13;6.60;;;4.50;;
4601;SDS011;2313;48.552;9.370;2023-01-20T00:58:40;6.33;;;4.50;;
4601;SDS011;2313;48.552;9.370;2023-01-20T01:01:07;6.07;;;4.38;;
4601;SDS011;2313;48.552;9.370;2023-01-20T01:03:32;6.90;;;4.70;;
4601;SDS011;2313;48.552;9.370;2023-01-20T01:06:05;5.10;;;4.40;;
4601;SDS011;2313;48.552;9.370;2023-01-20T01:08:32;7.38;;;4.72;;
4601;SDS011;2313;48.552;9.370;2023-01-20T01:10:59;9.00;;;5.32;;
4601;SDS011;2313;48.552;9.370;2023-01-20T01:13:24;11.20;;;5.70;;
4601;SDS011;2313;48.552;9.370;2023-01-20T01:15:50;6.10;;;5.03;;
4601;SDS011;2313;48.552;9.370;2023-01-20T01:18:16;4.83;;;4.37;;
4601;SDS011;2313;48.552;9.370;2023-01-20T01:20:41;5.07;;;4.33;;
4601;SDS011;2313;48.552;9.370;2023-01-20T01:23:08;4.78;;;4.03;;
4601;SDS011;2313;48.552;9.370;2023-01-20T01:25:35;5.32;;;4.07;;
4601;SDS011;2313;48.552;9.370;2023-01-20T01:28:01;4.78;;;4.00;;
4601;SDS011;2313;48.552;9.370;2023-01-20T01:30:27;9.13;;;3.73;;
4601;SDS011;2313;48.552;9.370;2023-01-20T01:32:52;5.03;;;4.47;;
4601;SDS011;2313;48.552;9.370;2023-01-20T01:35:18;4.30;;;3.73;;
4601;SDS011;2313;48.552;9.370;2023-01-20T01:37:44;9.90;;;4.73;;
4601;SDS011;2313;48.552;9.370;2023-01-20T01:40:24;7.43;;;4.20;;
4601;SDS011;2313;48.552;9.370;2023-01-20T01:42:50;5.77;;;4.20;;
4601;SDS011;2313;48.552;9.370;2023-01-20T01:50:24;7.50;;;4.07;;
4601;SDS011;2313;48.552;9.370;2023-01-20T01:52:53;5.22;;;4.25;;
4601;SDS011;2313;48.552;9.370;2023-01-20T01:55:21;4.63;;;3.65;;
4601;SDS011;2313;48.552;9.370;2023-01-20T01:57:51;8.00;;;4.50;;
4601;SDS011;2313;48.552;9.370;2023-01-20T02:00:18;6.60;;;4.30;;
4601;SDS011;2313;48.552;9.370;2023-01-20T02:02:43;6.07;;;3.97;;
4601;SDS011;2313;48.552;9.370;2023-01-20T02:05:10;8.88;;;4.43;;
4601;SDS011;2313;48.552;9.370;2023-01-20T02:07:37;6.72;;;4.70;;
4601;SDS011;2313;48.552;9.370;2023-01-20T02:10:04;8.00;;;3.67;;
4601;SDS011;2313;48.552;9.370;2023-01-20T02:12:30;8.45;;;3.42;;
4601;SDS011;2313;48.552;9.370;2023-01-20T02:14:56;5.67;;;3.87;;
4601;SDS011;2313;48.552;9.370;2023-01-20T02:17:27;6.75;;;4.95;;
4601;SDS011;2313;48.552;9.370;2023-01-20T02:23:06;5.38;;;4.32;;
4601;SDS011;2313;48.552;9.370;2023-01-20T02:29:03;5.65;;;4.07;;
4601;SDS011;2313;48.552;9.370;2023-01-20T02:34:34;5.70;;;4.50;;
4601;SDS011;2313;48.552;9.370;2023-01-20T02:37:06;5.47;;;4.47;;
4601;SDS011;2313;48.552;9.370;2023-01-20T02:42:10;5.60;;;4.55;;
4601;SDS011;2313;48.552;9.370;2023-01-20T02:47:50;10.85;;;4.85;;
4601;SDS011;2313;48.552;9.370;2023-01-20T02:50:15;6.28;;;4.80;;
4601;SDS011;2313;48.552;9.370;2023-01-20T02:52:48;10.80;;;5.22;;
4601;SDS011;2313;48.552;9.370;2023-01-20T02:55:22;6.88;;;5.00;;
4601;SDS011;2313;48.552;9.370;2023-01-20T02:57:59;8.05;;;4.78;;
4601;SDS011;2313;48.552;9.370;2023-01-20T03:00:30;7.32;;;5.75;;
4601;SDS011;2313;48.552;9.370;2023-01-20T03:03:01;11.23;;;4.53;;
4601;SDS011;2313;48.552;9.370;2023-01-20T03:05:32;10.68;;;4.72;;
4601;SDS011;2313;48.552;9.370;2023-01-20T03:08:03;8.98;;;5.25;;
4601;SDS011;2313;48.552;9.370;2023-01-20T03:10:31;9.00;;;5.53;;
4601;SDS011;2313;48.552;9.370;2023-01-20T03:13:05;8.35;;;5.40;;
4601;SDS011;2313;48.552;9.370;2023-01-20T03:15:44;9.48;;;5.82;;
4601;SDS011;2313;48.552;9.370;2023-01-20T03:18:12;7.97;;;5.90;;
4601;SDS011;2313;48.552;9.370;2023-01-20T03:20:37;6.60;;;4.90;;
4601;SDS011;2313;48.552;9.370;2023-01-20T03:23:03;6.73;;;4.73;;
4601;SDS011;2313;48.552;9.370;2023-01-20T03:25:29;8.47;;;6.00;;
4601;SDS011;2313;48.552;9.370;2023-01-20T03:27:55;7.03;;;5.13;;
4601;SDS011;2313;48.552;9.370;2023-01-20T03:30:21;7.50;;;5.40;;
4601;SDS011;2313;48.552;9.370;2023-01-20T03:32:48;7.25;;;5.63;;
4601;SDS011;2313;48.552;9.370;2023-01-20T03:35:16;6.97;;;4.68;;
4601;SDS011;2313;48.552;9.370;2023-01-20T03:37:42;7.00;;;5.30;;
4601;SDS011;2313;48.552;9.370;2023-01-20T03:40:09;4.82;;;4.40;;
4601;SDS011;2313;48.552;9.370;2023-01-20T03:42:38;6.93;;;4.85;;
4601;SDS011;2313;48.552;9.370;2023-01-20T03:45:18;5.45;;;4.30;;
4601;SDS011;2313;48.552;9.370;2023-01-20T03:47:56;7.35;;;4.85;;
4601;SDS011;2313;48.552;9.370;2023-01-20T03:53:27;9.73;;;5.40;;
4601;SDS011;2313;48.552;9.370;2023-01-20T03:56:22;5.13;;;4.40;;
4601;SDS011;2313;48.552;9.370;2023-01-20T03:58:54;9.20;;;5.00;;
4601;SDS011;2313;48.552;9.370;2023-01-20T04:01:25;5.75;;;4.65;;
4601;SDS011;2313;48.552;9.370;2023-01-20T04:03:58;7.30;;;4.90;;
4601;SDS011;2313;48.552;9.370;2023-01-20T04:06:27;4.95;;;4.45;;
4601;SDS011;2313;48.552;9.370;2023-01-20T04:08:55;4.68;;;4.28;;
4601;SDS011;2313;48.552;9.370;2023-01-20T04:11:28;7.90;;;4.70;;
4601;SDS011;2313;48.552;9.370;2023-01-20T04:13:54;5.83;;;4.30;;
4601;SDS011;2313;48.552;9.370;2023-01-20T04:16:20;6.20;;;4.80;;
4601;SDS011;2313;48.552;9.370;2023-01-20T04:18:48;8.25;;;5.45;;
4601;SDS011;2313;48.552;9.370;2023-01-20T04:21:19;7.22;;;3.85;;
4601;SDS011;2313;48.552;9.370;2023-01-20T04:26:27;6.93;;;5.15;;
4601;SDS011;2313;48.552;9.370;2023-01-20T04:28:53;9.00;;;4.83;;
4601;SDS011;2313;48.552;9.370;2023-01-20T04:31:18;7.50;;;5.03;;
4601;SDS011;2313;48.552;9.370;2023-01-20T04:33:44;10.07;;;5.17;;
4601;SDS011;2313;48.552;9.370;2023-01-20T04:36:10;7.10;;;4.93;;
4601;SDS011;2313;48.552;9.370;2023-01-20T04:38:35;7.43;;;4.97;;
4601;SDS011;2313;48.552;9.370;2023-01-20T04:41:01;8.43;;;5.57;;
4601;SDS011;2313;48.552;9.370;2023-01-20T04:43:26;11.27;;;7.50;;
4601;SDS011;2313;48.552;9.370;2023-01-20T04:45:52;14.23;;;9.03;;
4601;SDS011;2313;48.552;9.370;2023-01-20T04:48:17;19.37;;;11.90;;
4601;SDS011;2313;48.552;9.370;2023-01-20T04:50:43;14.70;;;9.90;;
4601;SDS011;2313;48.552;9.370;2023-01-20T04:53:09;11.30;;;6.90;;
4601;SDS011;2313;48.552;9.370;2023-01-20T04:55:37;12.82;;;7.80;;
4601;SDS011;2313;48.552;9.370;2023-01-20T04:58:03;18.83;;;11.93;;
4601;SDS011;2313;48.552;9.370;2023-01-20T05:00:28;14.30;;;7.53;;
4601;SDS011;2313;48.552;9.370;2023-01-20T05:02:57;8.53;;;7.60;;
4601;SDS011;2313;48.552;9.370;2023-01-20T05:05:23;9.32;;;7.22;;
4601;SDS011;2313;48.552;9.370;2023-01-20T05:07:52;10.67;;;8.07;;
4601;SDS011;2313;48.552;9.370;2023-01-20T05:10:18;15.80;;;8.82;;
4601;SDS011;2313;48.552;9.370;2023-01-20T05:12:44;10.17;;;7.57;;
4601;SDS011;2313;48.552;9.370;2023-01-20T05:15:10;12.93;;;8.10;;
4601;SDS011;2313;48.552;9.370;2023-01-20T05:17:35;13.20;;;9.00;;
4601;SDS011;2313;48.552;9.370;2023-01-20T05:20:01;14.43;;;9.10;;
4601;SDS011;2313;48.552;9.370;2023-01-20T05:22:27;12.90;;;9.00;;
4601;SDS011;2313;48.552;9.370;2023-01-20T05:24:53;12.13;;;9.02;;
4601;SDS011;2313;48.552;9.370;2023-01-20T05:27:19;14.60;;;10.63;;
4601;SDS011;2313;48.552;9.370;2023-01-20T05:29:44;12.80;;;8.70;;
4601;SDS011;2313;48.552;9.370;2023-01-20T05:32:10;14.83;;;9.20;;
4601;SDS011;2313;48.552;9.370;2023-01-20T05:34:35;16.07;;;10.20;;
4601;SDS011;2313;48.552;9.370;2023-01-20T05:37:01;18.03;;;11.60;;
4601;SDS011;2313;48.552;9.370;2023-01-20T05:39:27;13.47;;;8.90;;
4601;SDS011;2313;48.552;9.370;2023-01-20T05:41:52;14.20;;;8.67;;
4601;SDS011;2313;48.552;9.370;2023-01-20T05:44:18;13.53;;;9.43;;
4601;SDS011;2313;48.552;9.370;2023-01-20T05:46:43;16.80;;;9.80;;
4601;SDS011;2313;48.552;9.370;2023-01-20T05:49:10;15.00;;;9.63;;
4601;SDS011;2313;48.552;9.370;2023-01-20T05:51:36;17.02;;;10.70;;
4601;SDS011;2313;48.552;9.370;2023-01-20T05:54:02;15.40;;;9.80;;
4601;SDS011;2313;48.552;9.370;2023-01-20T05:56:28;18.23;;;11.00;;
4601;SDS011;2313;48.552;9.370;2023-01-20T05:58:54;16.73;;;10.60;;
4601;SDS011;2313;48.552;9.370;2023-01-20T06:01:20;14.35;;;10.15;;
4601;SDS011;2313;48.552;9.370;2023-01-20T06:03:46;18.33;;;11.43;;
4601;SDS011;2313;48.552;9.370;2023-01-20T06:06:12;19.07;;;10.80;;
4601;SDS011;2313;48.552;9.370;2023-01-20T06:08:39;15.88;;;10.98;;
4601;SDS011;2313;48.552;9.370;2023-01-20T06:11:06;15.70;;;10.48;;
4601;SDS011;2313;48.552;9.370;2023-01-20T06:13:31;16.33;;;9.97;;
4601;SDS011;2313;48.552;9.370;2023-01-20T06:15:59;20.27;;;10.50;;
4601;SDS011;2313;48.552;9.370;2023-01-20T06:18:24;15.83;;;11.40;;
4601;SDS011;2313;48.552;9.370;2023-01-20T06:20:50;23.13;;;14.30;;
4601;SDS011;2313;48.552;9.370;2023-01-20T06:23:16;21.43;;;13.13;;
4601;SDS011;2313;48.552;9.370;2023-01-20T06:25:42;21.88;;;12.60;;
4601;SDS011;2313;48.552;9.370;2023-01-20T06:28:08;21.90;;;14.40;;
4601;SDS011;2313;48.552;9.370;2023-01-20T06:30:33;20.00;;;13.93;;
4601;SDS011;2313;48.552;9.370;2023-01-20T06:32:59;18.83;;;13.40;;
4601;SDS011;2313;48.552;9.370;2023-01-20T06:35:25;18.47;;;12.03;;
4601;SDS011;2313;48.552;9.370;2023-01-20T06:37:50;16.50;;;12.10;;
4601;SDS011;2313;48.552;9.370;2023-01-20T06:40:16;17.70;;;12.20;;
4601;SDS011;2313;48.552;9.370;2023-01-20T06:42:42;20.17;;;11.30;;
4601;SDS011;2313;48.552;9.370;2023-01-20T06:45:08;22.83;;;12.87;;
4601;SDS011;2313;48.552;9.370;2023-01-20T06:47:34;22.45;;;11.32;;
4601;SDS011;2313;48.552;9.370;2023-01-20T06:49:59;17.53;;;11.37;;
4601;SDS011;2313;48.552;9.370;2023-01-20T06:52:25;16.93;;;11.30;;
4601;SDS011;2313;48.552;9.370;2023-01-20T06:54:51;20.03;;;11.93;;
4601;SDS011;2313;48.552;9.370;2023-01-20T06:57:16;19.03;;;12.27;;
4601;SDS011;2313;48.552;9.370;2023-01-20T06:59:42;17.23;;;11.70;;
4601;SDS011;2313;48.552;9.370;2023-01-20T07:02:09;18.80;;;13.27;;
4601;SDS011;2313;48.552;9.370;2023-01-20T07:04:36;17.00;;;12.90;;
4601;SDS011;2313;48.552;9.370;2023-01-20T07:07:01;20.17;;;14.50;;
4601;SDS011;2313;48.552;9.370;2023-01-20T07:09:27;21.57;;;14.77;;
4601;SDS011;2313;48.552;9.370;2023-01-20T07:11:53;24.33;;;15.17;;
4601;SDS011;2313;48.552;9.370;2023-01-20T07:14:19;20.40;;;14.13;;
4601;SDS011;2313;48.552;9.370;2023-01-20T07:16:44;22.67;;;14.47;;
4601;SDS011;2313;48.552;9.370;2023-01-20T07:19:10;20.47;;;13.63;;
4601;SDS011;2313;48.552;9.370;2023-01-20T07:21:36;22.08;;;14.32;;
4601;SDS011;2313;48.552;9.370;2023-01-20T07:24:02;25.07;;;15.83;;
4601;SDS011;2313;48.552;9.370;2023-01-20T07:26:28;27.08;;;14.55;;
4601;SDS011;2313;48.552;9.370;2023-01-20T07:28:56;23.70;;;12.63;;
4601;SDS011;2313;48.552;9.370;2023-01-20T07:31:23;23.65;;;12.80;;
4601;SDS011;2313;48.552;9.370;2023-01-20T07:33:50;27.88;;;11.45;;
4601;SDS011;2313;48.552;9.370;2023-01-20T07:36:16;32.45;;;11.68;;
4601;SDS011;2313;48.552;9.370;2023-01-20T07:38:43;30.63;;;12.50;;
4601;SDS011;2313;48.552;9.370;2023-01-20T07:41:11;21.23;;;11.20;;
4601;SDS011;2313;48.552;9.370;2023-01-20T07:43:40;22.50;;;12.02;;
4601;SDS011;2313;48.552;9.370;2023-01-20T07:46:06;16.80;;;11.80;;
4601;SDS011;2313;48.552;9.370;2023-01-20T07:48:32;15.17;;;10.70;;
4601;SDS011;2313;48.552;9.370;2023-01-20T07:50:59;20.03;;;11.50;;
4601;SDS011;2313;48.552;9.370;2023-01-20T07:55:55;17.27;;;11.85;;
4601;SDS011;2313;48.552;9.370;2023-01-20T07:58:25;20.70;;;12.55;;
4601;SDS011;2313;48.552;9.370;2023-01-20T08:00:50;18.20;;;13.17;;
4601;SDS011;2313;48.552;9.370;2023-01-20T08:03:16;15.43;;;11.50;;
4601;SDS011;2313;48.552;9.370;2023-01-20T08:05:41;25.93;;;12.77;;
4601;SDS011;2313;48.552;9.370;2023-01-20T08:08:07;19.67;;;12.53;;
4601;SDS011;2313;48.552;9.370;2023-01-20T08:10:32;19.57;;;13.23;;
4601;SDS011;2313;48.552;9.370;2023-01-20T08:12:58;22.17;;;13.13;;
4601;SDS011;2313;48.552;9.370;2023-01-20T08:15:24;15.23;;;10.27;;
4601;SDS011;2313;48.552;9.370;2023-01-20T08:17:53;13.80;;;9.60;;
4601;SDS011;2313;48.552;9.370;2023-01-20T08:20:20;13.50;;;9.25;;
4601;SDS011;2313;48.552;9.370;2023-01-20T08:22:45;13.43;;;8.97;;
4601;SDS011;2313;48.552;9.370;2023-01-20T08:25:11;14.57;;;10.30;;
4601;SDS011;2313;48.552;9.370;2023-01-20T08:27:37;28.13;;;9.47;;
4601;SDS011;2313;48.552;9.370;2023-01-20T08:30:02;14.70;;;10.50;;
4601;SDS011;2313;48.552;9.370;2023-01-20T08:32:28;12.35;;;8.75;;
4601;SDS011;2313;48.552;9.370;2023-01-20T08:34:54;17.30;;;9.60;;
4601;SDS011;2313;48.552;9.370;2023-01-20T08:37:20;13.33;;;8.40;;
4601;SDS011;2313;48.552;9.370;2023-01-20T08:39:46;10.00;;;7.77;;
4601;SDS011;2313;48.552;9.370;2023-01-20T08:42:11;13.23;;;8.40;;
4601;SDS011;2313;48.552;9.370;2023-01-20T08:44:37;13.03;;;8.03;;
4601;SDS011;2313;48.552;9.370;2023-01-20T08:47:03;13.07;;;8.73;;
4601;SDS011;2313;48.552;9.370;2023-01-20T08:49:29;13.07;;;10.33;;
4601;SDS011;2313;48.552;9.370;2023-01-20T08:51:55;14.53;;;9.73;;
4601;SDS011;2313;48.552;9.370;2023-01-20T08:54:21;11.65;;;8.52;;
4601;SDS011;2313;48.552;9.370;2023-01-20T08:56:51;14.55;;;8.63;;
4601;SDS011;2313;48.552;9.370;2023-01-20T08:59:17;15.88;;;9.35;;
4601;SDS011;2313;48.552;9.370;2023-01-20T09:01:43;15.68;;;8.52;;
4601;SDS011;2313;48.552;9.370;2023-01-20T09:04:09;28.83;;;13.67;;
4601;SDS011;2313;48.552;9.370;2023-01-20T09:06:45;23.20;;;13.27;;
4601;SDS011;2313;48.552;9.370;2023-01-20T09:09:14;20.50;;;12.30;;
4601;SDS011;2313;48.552;9.370;2023-01-20T09:11:41;16.48;;;11.82;;
4601;SDS011;2313;48.552;9.370;2023-01-20T09:14:14;19.00;;;10.73;;
4601;SDS011;2313;48.552;9.370;2023-01-20T09:16:40;14.25;;;9.63;;
4601;SDS011;2313;48.552;9.370;2023-01-20T09:19:06;16.50;;;10.77;;
4601;SDS011;2313;48.552;9.370;2023-01-20T09:21:34;13.48;;;9.52;;
4601;SDS011;2313;48.552;9.370;2023-01-20T09:23:59;14.07;;;10.13;;
4601;SDS011;2313;48.552;9.370;2023-01-20T09:26:25;12.40;;;9.27;;
4601;SDS011;2313;48.552;9.370;2023-01-20T09:28:51;12.90;;;9.30;;
4601;SDS011;2313;48.552;9.370;2023-01-20T09:31:16;11.20;;;9.00;;
4601;SDS011;2313;48.552;9.370;2023-01-20T09:33:42;14.60;;;9.60;;
4601;SDS011;2313;48.552;9.370;2023-01-20T09:36:08;13.30;;;9.43;;
4601;SDS011;2313;48.552;9.370;2023-01-20T09:38:35;22.40;;;10.43;;
4601;SDS011;2313;48.552;9.370;2023-01-20T09:41:30;15.25;;;9.95;;
4601;SDS011;2313;48.552;9.370;2023-01-20T09:52:36;16.15;;;9.93;;
4601;SDS011;2313;48.552;9.370;2023-01-20T09:58:17;17.30;;;10.15;;
4601;SDS011;2313;48.552;9.370;2023-01-20T10:00:54;16.98;;;9.35;;
4601;SDS011;2313;48.552;9.370;2023-01-20T10:06:33;12.65;;;9.82;;
4601;SDS011;2313;48.552;9.370;2023-01-20T10:09:21;12.60;;;9.02;;
4601;SDS011;2313;48.552;9.370;2023-01-20T10:12:30;15.88;;;8.50;;
4601;SDS011;2313;48.552;9.370;2023-01-20T10:15:11;12.05;;;8.25;;
4601;SDS011;2313;48.552;9.370;2023-01-20T10:17:42;10.45;;;7.70;;
4601;SDS011;2313;48.552;9.370;2023-01-20T10:20:30;10.00;;;8.10;;
4601;SDS011;2313;48.552;9.370;2023-01-20T10:28:23;8.77;;;7.87;;
4601;SDS011;2313;48.552;9.370;2023-01-20T10:30:52;11.37;;;8.27;;
4601;SDS011;2313;48.552;9.370;2023-01-20T10:33:22;11.37;;;8.17;;
4601;SDS011;2313;48.552;9.370;2023-01-20T10:36:02;11.67;;;7.50;;
4601;SDS011;2313;48.552;9.370;2023-01-20T10:38:33;9.87;;;6.50;;
4601;SDS011;2313;48.552;9.370;2023-01-20T10:41:15;7.40;;;6.70;;
4601;SDS011;2313;48.552;9.370;2023-01-20T10:43:44;11.20;;;8.73;;
4601;SDS011;2313;48.552;9.370;2023-01-20T10:46:25;20.30;;;14.53;;
4601;SDS011;2313;48.552;9.370;2023-01-20T10:52:24;10.00;;;7.87;;
4601;SDS011;2313;48.552;9.370;2023-01-20T10:58:03;13.80;;;7.80;;
4601;SDS011;2313;48.552;9.370;2023-01-20T11:00:51;13.23;;;10.40;;
4601;SDS011;2313;48.552;9.370;2023-01-20T11:03:18;11.60;;;9.00;;
4601;SDS011;2313;48.552;9.370;2023-01-20T11:05:46;11.37;;;7.97;;
4601;SDS011;2313;48.552;9.370;2023-01-20T11:08:16;21.10;;;17.20;;
4601;SDS011;2313;48.552;9.370;2023-01-20T11:10:48;15.70;;;12.00;;
4601;SDS011;2313;48.552;9.370;2023-01-20T11:13:16;14.77;;;11.27;;
4601;SDS011;2313;48.552;9.370;2023-01-20T11:15:46;9.53;;;7.57;;
4601;SDS011;2313;48.552;9.370;2023-01-20T11:20:44;10.97;;;6.57;;
4601;SDS011;2313;48.552;9.370;2023-01-20T11:23:18;20.93;;;9.30;;
4601;SDS011;2313;48.552;9.370;2023-01-20T11:26:01;14.33;;;8.00;;
4601;SDS011;2313;48.552;9.370;2023-01-20T11:28:36;10.57;;;7.45;;
4601;SDS011;2313;48.552;9.370;2023-01-20T11:31:44;11.87;;;8.00;;
4601;SDS011;2313;48.552;9.370;2023-01-20T11:34:29;9.88;;;7.00;;
4601;SDS011;2313;48.552;9.370;2023-01-20T11:39:32;12.23;;;6.50;;
4601;SDS011;2313;48.552;9.370;2023-01-20T11:44:43;11.15;;;6.80;;
4601;SDS011;2313;48.552;9.370;2023-01-20T11:47:32;6.88;;;5.30;;
4601;SDS011;2313;48.552;9.370;2023-01-20T11:52:29;14.95;;;8.10;;
4601;SDS011;2313;48.552;9.370;2023-01-20T11:55:09;10.00;;;7.05;;
4601;SDS011;2313;48.552;9.370;2023-01-20T11:57:51;15.07;;;10.38;;
4601;SDS011;2313;48.552;9.370;2023-01-20T12:02:55;19.55;;;7.43;;
4601;SDS011;2313;48.552;9.370;2023-01-20T12:08:03;9.95;;;6.85;;
4601;SDS011;2313;48.552;9.370;2023-01-20T12:10:33;12.52;;;7.47;;
4601;SDS011;2313;48.552;9.370;2023-01-20T12:15:39;11.35;;;6.88;;
4601;SDS011;2313;48.552;9.370;2023-01-20T12:21:01;8.13;;;5.25;;
4601;SDS011;2313;48.552;9.370;2023-01-20T12:26:11;7.32;;;4.85;;
4601;SDS011;2313;48.552;9.370;2023-01-20T12:28:58;12.95;;;5.90;;
4601;SDS011;2313;48.552;9.370;2023-01-20T12:31:49;6.57;;;5.60;;
4601;SDS011;2313;48.552;9.370;2023-01-20T12:34:36;13.05;;;6.15;;
4601;SDS011;2313;48.552;9.370;2023-01-20T12:40:04;9.13;;;5.85;;
4601;SDS011;2313;48.552;9.370;2023-01-20T12:45:36;9.70;;;6.18;;
4601;SDS011;2313;48.552;9.370;2023-01-20T12:48:22;8.20;;;5.30;;
4601;SDS011;2313;48.552;9.370;2023-01-20T13:01:57;9.68;;;6.72;;
4601;SDS011;2313;48.552;9.370;2023-01-20T13:15:53;9.38;;;5.72;;
4601;SDS011;2313;48.552;9.370;2023-01-20T13:21:11;6.82;;;4.95;;
4601;SDS011;2313;48.552;9.370;2023-01-20T13:23:43;9.43;;;6.30;;
4601;SDS011;2313;48.552;9.370;2023-01-20T13:26:09;9.00;;;6.50;;
4601;SDS011;2313;48.552;9.370;2023-01-20T13:28:36;11.15;;;7.93;;
4601;SDS011;2313;48.552;9.370;2023-01-20T13:31:27;8.77;;;6.03;;
4601;SDS011;2313;48.552;9.370;2023-01-20T13:33:53;11.18;;;6.10;;
4601;SDS011;2313;48.552;9.370;2023-01-20T13:50:33;8.82;;;6.45;;
4601;SDS011;2313;48.552;9.370;2023-01-20T13:53:03;9.52;;;6.53;;
4601;SDS011;2313;48.552;9.370;2023-01-20T14:01:03;12.07;;;8.52;;
4601;SDS011;2313;48.552;9.370;2023-01-20T14:03:32;13.20;;;8.35;;
4601;SDS011;2313;48.552;9.370;2023-01-20T14:06:03;11.93;;;7.75;;
4601;SDS011;2313;48.552;9.370;2023-01-20T14:11:11;23.67;;;15.18;;
4601;SDS011;2313;48.552;9.370;2023-01-20T14:13:38;20.20;;;9.52;;
4601;SDS011;2313;48.552;9.370;2023-01-20T14:16:15;14.65;;;10.43;;
4601;SDS011;2313;48.552;9.370;2023-01-20T14:21:40;10.40;;;7.60;;
4601;SDS011;2313;48.552;9.370;2023-01-20T14:27:04;11.10;;;7.38;;
4601;SDS011;2313;48.552;9.370;2023-01-20T14:29:38;8.65;;;6.25;;
4601;SDS011;2313;48.552;9.370;2023-01-20T14:32:46;10.33;;;7.10;;
4601;SDS011;2313;48.552;9.370;2023-01-20T14:34:56;9.30;;;6.70;;
4601;SDS011;2313;48.552;9.370;2023-01-20T14:37:26;10.73;;;7.60;;
4601;SDS011;2313;48.552;9.370;2023-01-20T14:39:58;19.33;;;8.70;;
4601;SDS011;2313;48.552;9.370;2023-01-20T14:42:26;14.02;;;7.47;;
4601;SDS011;2313;48.552;9.370;2023-01-20T14:44:53;16.27;;;7.70;;
4601;SDS011;2313;48.552;9.370;2023-01-20T14:47:21;15.93;;;8.30;;
4601;SDS011;2313;48.552;9.370;2023-01-20T14:49:49;11.35;;;7.30;;
4601;SDS011;2313;48.552;9.370;2023-01-20T14:52:20;7.72;;;5.78;;
4601;SDS011;2313;48.552;9.370;2023-01-20T14:54:48;9.13;;;7.30;;
4601;SDS011;2313;48.552;9.370;2023-01-20T14:57:18;16.77;;;7.40;;
4601;SDS011;2313;48.552;9.370;2023-01-20T14:59:59;8.30;;;6.38;;
4601;SDS011;2313;48.552;9.370;2023-01-20T15:03:05;12.57;;;7.10;;
4601;SDS011;2313;48.552;9.370;2023-01-20T15:05:53;10.82;;;6.60;;
4601;SDS011;2313;48.552;9.370;2023-01-20T15:16:26;9.65;;;6.25;;
4601;SDS011;2313;48.552;9.370;2023-01-20T15:21:37;8.55;;;6.50;;
4601;SDS011;2313;48.552;9.370;2023-01-20T15:24:10;9.23;;;6.38;;
4601;SDS011;2313;48.552;9.370;2023-01-20T15:27:19;7.45;;;5.57;;
4601;SDS011;2313;48.552;9.370;2023-01-20T15:32:26;7.28;;;5.50;;
4601;SDS011;2313;48.552;9.370;2023-01-20T15:34:51;12.80;;;6.00;;
4601;SDS011;2313;48.552;9.370;2023-01-20T15:37:17;7.93;;;5.70;;
4601;SDS011;2313;48.552;9.370;2023-01-20T15:39:43;8.13;;;5.68;;
4601;SDS011;2313;48.552;9.370;2023-01-20T15:42:09;6.80;;;5.33;;
4601;SDS011;2313;48.552;9.370;2023-01-20T15:44:35;10.88;;;5.40;;
4601;SDS011;2313;48.552;9.370;2023-01-20T15:47:01;15.53;;;11.30;;
4601;SDS011;2313;48.552;9.370;2023-01-20T15:49:29;14.18;;;10.15;;
4601;SDS011;2313;48.552;9.370;2023-01-20T15:51:55;19.40;;;10.13;;
4601;SDS011;2313;48.552;9.370;2023-01-20T15:54:21;12.57;;;8.37;;
4601;SDS011;2313;48.552;9.370;2023-01-20T15:56:46;12.03;;;5.90;;
4601;SDS011;2313;48.552;9.370;2023-01-20T15:59:16;5.37;;;4.00;;
4601;SDS011;2313;48.552;9.370;2023-01-20T16:01:44;7.55;;;4.45;;
4601;SDS011;2313;48.552;9.370;2023-01-20T16:04:11;9.05;;;4.95;;
4601;SDS011;2313;48.552;9.370;2023-01-20T16:06:37;8.40;;;3.80;;
4601;SDS011;2313;48.552;9.370;2023-01-20T16:09:12;6.95;;;4.50;;
4601;SDS011;2313;48.552;9.370;2023-01-20T16:11:43;5.80;;;3.75;;
4601;SDS011;2313;48.552;9.370;2023-01-20T16:14:09;5.33;;;4.50;;
4601;SDS011;2313;48.552;9.370;2023-01-20T16:16:34;5.53;;;4.73;;
4601;SDS011;2313;48.552;9.370;2023-01-20T16:19:00;7.07;;;3.57;;
4601;SDS011;2313;48.552;9.370;2023-01-20T16:21:25;7.60;;;4.60;;
4601;SDS011;2313;48.552;9.370;2023-01-20T16:23:51;5.70;;;3.60;;
4601;SDS011;2313;48.552;9.370;2023-01-20T16:26:21;15.13;;;5.33;;
4601;SDS011;2313;48.552;9.370;2023-01-20T16:28:48;13.88;;;6.13;;
4601;SDS011;2313;48.552;9.370;2023-01-20T16:31:15;24.83;;;11.93;;
4601;SDS011;2313;48.552;9.370;2023-01-20T16:33:41;11.95;;;9.45;;
4601;SDS011;2313;48.552;9.370;2023-01-20T16:36:11;12.77;;;9.03;;
4601;SDS011;2313;48.552;9.370;2023-01-20T16:38:38;14.23;;;11.30;;
4601;SDS011;2313;48.552;9.370;2023-01-20T16:41:05;5.88;;;5.15;;
4601;SDS011;2313;48.552;9.370;2023-01-20T16:43:40;20.33;;;7.68;;
4601;SDS011;2313;48.552;9.370;2023-01-20T16:46:09;29.73;;;9.25;;
4601;SDS011;2313;48.552;9.370;2023-01-20T16:48:41;11.15;;;3.90;;
4601;SDS011;2313;48.552;9.370;2023-01-20T16:51:08;5.85;;;3.65;;
4601;SDS011;2313;48.552;9.370;2023-01-20T16:53:44;6.45;;;3.75;;
4601;SDS011;2313;48.552;9.370;2023-01-20T16:56:16;5.03;;;2.97;;
4601;SDS011;2313;48.552;9.370;2023-01-20T16:58:45;12.23;;;3.60;;
4601;SDS011;2313;48.552;9.370;2023-01-20T17:01:11;7.90;;;4.45;;
4601;SDS011;2313;48.552;9.370;2023-01-20T17:03:38;6.10;;;3.50;;
4601;SDS011;2313;48.552;9.370;2023-01-20T17:06:15;11.48;;;4.78;;
4601;SDS011;2313;48.552;9.370;2023-01-20T17:08:42;7.95;;;4.10;;
4601;SDS011;2313;48.552;9.370;2023-01-20T17:11:16;8.38;;;4.55;;
4601;SDS011;2313;48.552;9.370;2023-01-20T17:13:49;7.13;;;3.90;;
4601;SDS011;2313;48.552;9.370;2023-01-20T17:16:16;17.08;;;8.95;;
4601;SDS011;2313;48.552;9.370;2023-01-20T17:18:42;7.82;;;5.32;;
4601;SDS011;2313;48.552;9.370;2023-01-20T17:21:12;11.90;;;6.68;;
4601;SDS011;2313;48.552;9.370;2023-01-20T17:23:38;9.30;;;4.50;;
4601;SDS011;2313;48.552;9.370;2023-01-20T17:26:04;6.25;;;4.30;;
4601;SDS011;2313;48.552;9.370;2023-01-20T17:28:31;4.82;;;3.95;;
4601;SDS011;2313;48.552;9.370;2023-01-20T17:31:03;4.40;;;3.90;;
4601;SDS011;2313;48.552;9.370;2023-01-20T17:33:30;8.13;;;4.30;;
4601;SDS011;2313;48.552;9.370;2023-01-20T17:35:56;5.23;;;3.53;;
4601;SDS011;2313;48.552;9.370;2023-01-20T17:38:23;9.38;;;4.20;;
4601;SDS011;2313;48.552;9.370;2023-01-20T17:40:49;9.93;;;3.70;;
4601;SDS011;2313;48.552;9.370;2023-01-20T17:43:15;9.68;;;5.68;;
4601;SDS011;2313;48.552;9.370;2023-01-20T17:45:41;8.43;;;4.53;;
4601;SDS011;2313;48.552;9.370;2023-01-20T17:48:06;9.85;;;5.10;;